createdAt,value
2018-05-11T08:35:41.882Z,50
2018-05-11T08:36:22.441Z,50
2018-05-11T08:37:03.052Z,50
2018-05-11T08:37:43.691Z,50
2018-05-11T08:38:24.244Z,50
2018-05-11T08:39:04.796Z,50
2018-05-11T08:39:45.344Z,50
2018-05-11T08:40:25.950Z,50
2018-05-11T08:41:06.493Z,50
2018-05-11T08:41:47.055Z,50
2018-05-11T08:42:27.626Z,50
2018-05-11T08:43:08.179Z,50
2018-05-11T08:43:48.740Z,50
2018-05-11T08:44:29.306Z,50
2018-05-11T08:45:09.859Z,50
2018-05-11T08:45:50.434Z,50
2018-05-11T08:46:31.009Z,50
2018-05-11T08:47:11.615Z,50
2018-05-11T08:47:52.179Z,50
2018-05-11T08:48:32.739Z,50
2018-05-11T08:49:13.300Z,50
2018-05-11T08:49:53.889Z,50
2018-05-11T08:50:34.460Z,50
2018-05-11T08:51:15.048Z,50
2018-05-11T08:51:55.772Z,45
2018-05-11T08:52:36.287Z,45
2018-05-11T08:53:16.918Z,45
2018-05-11T08:53:57.773Z,45
2018-05-11T08:54:38.348Z,45
2018-05-11T08:55:18.925Z,45
2018-05-11T08:55:59.586Z,45
2018-05-11T08:56:40.194Z,45
2018-05-11T08:57:20.744Z,45
2018-05-11T08:58:01.334Z,45
2018-05-11T08:58:41.873Z,45
2018-05-11T08:59:22.439Z,45
2018-05-11T09:00:02.997Z,50
2018-05-11T09:00:43.545Z,50
2018-05-11T09:01:24.133Z,50
2018-05-11T09:02:04.726Z,50
2018-05-11T09:02:45.283Z,50
2018-05-11T09:03:25.973Z,50
2018-05-11T09:04:06.531Z,50
2018-05-11T09:04:47.073Z,50
2018-05-11T09:05:27.621Z,50
2018-05-11T09:06:08.183Z,50
2018-05-11T09:06:48.761Z,55
2018-05-11T09:07:29.340Z,55
2018-05-11T09:08:09.888Z,60
2018-05-11T09:08:50.460Z,65
2018-05-11T09:09:31.063Z,70
2018-05-11T09:10:11.648Z,75
2018-05-11T09:10:52.201Z,80
2018-05-11T09:11:32.770Z,90
2018-05-11T09:12:13.381Z,95
2018-05-11T09:12:53.937Z,95
2018-05-11T09:13:34.490Z,105
2018-05-11T09:14:15.060Z,110
2018-05-11T09:14:55.675Z,115
2018-05-11T09:15:36.303Z,120
2018-05-11T09:16:16.834Z,120
2018-05-11T09:16:57.385Z,115
2018-05-11T09:17:37.999Z,115
2018-05-11T09:18:18.580Z,115
2018-05-11T09:18:59.140Z,120
2018-05-11T09:19:39.703Z,125
2018-05-11T09:20:20.395Z,130
2018-05-11T09:21:00.921Z,130
2018-05-11T09:21:41.539Z,130
2018-05-11T09:22:22.054Z,125
2018-05-11T09:23:02.645Z,125
2018-05-11T09:23:43.264Z,125
2018-05-11T09:24:23.825Z,125
2018-05-11T09:25:04.447Z,125
2018-05-11T09:25:45.007Z,125
2018-05-11T09:26:25.557Z,125
2018-05-11T09:27:06.112Z,125
2018-05-11T09:27:46.659Z,125
2018-05-11T09:28:27.219Z,120
2018-05-11T09:29:07.781Z,120
2018-05-11T09:29:48.343Z,120
2018-05-11T09:30:28.905Z,120
2018-05-11T09:31:09.470Z,115
2018-05-11T09:31:50.127Z,115
2018-05-11T09:32:30.617Z,110
2018-05-11T09:33:11.174Z,110
2018-05-11T09:33:51.732Z,105
2018-05-11T09:34:32.353Z,105
2018-05-11T09:35:12.931Z,100
2018-05-11T09:35:53.493Z,100
2018-05-11T09:36:34.049Z,100
2018-05-11T09:37:14.632Z,95
2018-05-11T09:37:55.323Z,95
2018-05-11T09:38:35.905Z,95
2018-05-11T09:39:16.459Z,90
2018-05-11T09:39:57.005Z,90
2018-05-11T09:40:37.613Z,90
2018-05-11T09:41:18.379Z,95
2018-05-11T09:41:58.948Z,95
2018-05-11T09:42:39.499Z,100
2018-05-11T09:43:20.110Z,100
2018-05-11T09:44:00.685Z,105
2018-05-11T09:44:41.262Z,110
2018-05-11T09:45:21.839Z,115
2018-05-11T09:46:02.373Z,115
2018-05-11T09:46:43.102Z,120
2018-05-11T09:47:23.669Z,115
2018-05-11T09:48:04.261Z,115
2018-05-11T09:48:44.813Z,115
2018-05-11T09:49:25.433Z,110
2018-05-11T09:50:05.945Z,110
2018-05-11T09:50:46.568Z,105
2018-05-11T09:51:27.163Z,95
2018-05-11T09:52:07.722Z,95
2018-05-11T09:52:48.249Z,95
2018-05-11T09:53:28.811Z,100
2018-05-11T09:54:09.411Z,105
2018-05-11T09:54:50.016Z,120
2018-05-11T09:55:30.542Z,135
2018-05-11T09:56:11.106Z,155
2018-05-11T09:56:51.690Z,160
2018-05-11T09:57:32.259Z,165
2018-05-11T09:58:12.803Z,165
2018-05-11T09:58:53.475Z,165
2018-05-11T09:59:33.962Z,165
2018-05-11T10:00:14.519Z,155
2018-05-11T10:00:55.208Z,140
2018-05-11T10:01:35.852Z,135
2018-05-11T10:02:16.410Z,125
2018-05-11T10:02:57.064Z,130
2018-05-11T10:03:37.528Z,130
2018-05-11T10:04:18.086Z,135
2018-05-11T10:04:58.641Z,130
2018-05-11T10:05:39.200Z,125
2018-05-11T10:06:19.747Z,120
2018-05-11T10:07:00.282Z,115
2018-05-11T10:07:40.831Z,115
2018-05-11T10:08:21.374Z,110
2018-05-11T10:09:01.957Z,110
2018-05-11T10:09:42.521Z,110
2018-05-11T10:10:23.074Z,105
2018-05-11T10:11:03.651Z,100
2018-05-11T10:11:44.227Z,95
2018-05-11T10:12:24.827Z,90
2018-05-11T10:13:05.430Z,85
2018-05-11T10:13:46.091Z,90
2018-05-11T10:14:26.578Z,85
2018-05-11T10:15:07.147Z,85
2018-05-11T10:15:47.774Z,85
2018-05-11T10:16:28.330Z,90
2018-05-11T10:17:08.881Z,90
2018-05-11T10:17:49.456Z,90
2018-05-11T10:18:30.035Z,90
2018-05-11T10:19:10.580Z,90
2018-05-11T10:19:51.149Z,95
2018-05-11T10:20:31.699Z,95
2018-05-11T10:21:12.255Z,95
2018-05-11T10:21:52.832Z,90
2018-05-11T10:22:33.401Z,85
2018-05-11T10:23:13.970Z,85
2018-05-11T10:23:54.527Z,80
2018-05-11T10:24:35.129Z,80
2018-05-11T10:25:15.688Z,85
2018-05-11T10:25:56.247Z,85
2018-05-11T10:26:36.809Z,85
2018-05-11T10:27:17.372Z,90
2018-05-11T10:27:57.916Z,90
2018-05-11T10:28:38.499Z,90
2018-05-11T10:29:19.006Z,85
2018-05-11T10:29:59.548Z,90
2018-05-11T10:30:40.106Z,90
2018-05-11T10:31:20.696Z,90
2018-05-11T10:32:01.279Z,95
2018-05-11T10:32:41.838Z,95
2018-05-11T10:33:22.403Z,100
2018-05-11T10:34:03.000Z,105
2018-05-11T10:34:43.606Z,105
2018-05-11T10:35:24.184Z,110
2018-05-11T10:36:04.767Z,110
2018-05-11T10:36:45.381Z,110
2018-05-11T10:37:25.941Z,110
2018-05-11T10:38:06.518Z,110
2018-05-11T10:38:47.076Z,105
2018-05-11T10:39:27.617Z,100
2018-05-11T10:40:08.170Z,100
2018-05-11T10:40:48.766Z,95
2018-05-11T10:41:29.704Z,95
2018-05-11T10:42:10.261Z,90
2018-05-11T10:42:50.832Z,90
2018-05-11T10:43:31.409Z,85
2018-05-11T10:44:12.008Z,85
2018-05-11T10:44:52.607Z,85
2018-05-11T10:45:33.156Z,85
2018-05-11T10:46:13.728Z,85
2018-05-11T10:46:54.279Z,80
2018-05-11T10:47:34.859Z,80
2018-05-11T10:48:15.422Z,80
2018-05-11T10:48:55.980Z,75
2018-05-11T10:49:36.532Z,75
2018-05-11T10:50:17.092Z,70
2018-05-11T10:50:57.647Z,70
2018-05-11T10:51:38.313Z,70
2018-05-11T10:52:18.901Z,70
2018-05-11T10:52:59.459Z,65
2018-05-11T10:53:40.047Z,65
2018-05-11T10:54:20.673Z,65
2018-05-11T10:55:01.233Z,65
2018-05-11T10:55:41.831Z,65
2018-05-11T10:56:22.427Z,65
2018-05-11T10:57:02.992Z,65
2018-05-11T10:57:43.571Z,65
2018-05-11T10:58:24.139Z,65
2018-05-11T10:59:04.694Z,65
2018-05-11T10:59:45.264Z,65
2018-05-11T11:00:25.858Z,60
2018-05-11T11:01:06.441Z,60
2018-05-11T11:01:47.002Z,60
2018-05-11T11:02:27.626Z,60
2018-05-11T11:03:08.119Z,60
2018-05-11T11:03:48.723Z,55
2018-05-11T11:04:29.279Z,55
2018-05-11T11:05:09.811Z,55
2018-05-11T11:05:50.380Z,55
2018-05-11T11:06:30.962Z,55
2018-05-11T11:07:11.541Z,55
2018-05-11T11:07:52.122Z,55
2018-05-11T11:08:32.669Z,55
2018-05-11T11:09:13.270Z,55
2018-05-11T11:09:53.842Z,55
2018-05-11T11:10:34.384Z,55
2018-05-11T11:11:14.995Z,60
2018-05-11T11:11:55.534Z,60
2018-05-11T11:12:36.086Z,60
2018-05-11T11:13:16.648Z,60
2018-05-11T11:13:57.214Z,60
2018-05-11T11:14:37.791Z,65
2018-05-11T11:15:18.335Z,65
2018-05-11T11:15:58.892Z,65
2018-05-11T11:16:39.447Z,65
2018-05-11T11:17:20.007Z,65
2018-05-11T11:18:00.575Z,65
2018-05-11T11:18:41.124Z,65
2018-05-11T11:19:21.675Z,65
2018-05-11T11:20:02.342Z,65
2018-05-11T11:20:42.761Z,65
2018-05-11T11:21:23.325Z,60
2018-05-11T11:22:03.890Z,60
2018-05-11T11:22:44.447Z,60
2018-05-11T11:23:25.012Z,60
2018-05-11T11:24:05.634Z,60
2018-05-11T11:24:46.200Z,60
2018-05-11T11:25:26.767Z,60
2018-05-11T11:26:07.328Z,60
2018-05-11T11:26:47.898Z,60
2018-05-11T11:27:28.458Z,60
2018-05-11T11:28:09.025Z,60
2018-05-11T11:28:49.589Z,60
2018-05-11T11:29:30.157Z,60
2018-05-11T11:30:10.732Z,60
2018-05-11T11:30:51.319Z,60
2018-05-11T11:31:31.934Z,60
2018-05-11T11:32:12.443Z,60
2018-05-11T11:32:53.009Z,60
2018-05-11T11:33:33.576Z,65
2018-05-11T11:34:14.199Z,65
2018-05-11T11:34:54.750Z,65
2018-05-11T11:35:35.310Z,70
2018-05-11T11:36:15.874Z,70
2018-05-11T11:36:56.435Z,70
2018-05-11T11:37:36.996Z,70
2018-05-11T11:38:17.640Z,70
2018-05-11T11:38:58.141Z,75
2018-05-11T11:39:38.705Z,75
2018-05-11T11:40:19.322Z,75
2018-05-11T11:40:59.834Z,75
2018-05-11T11:41:40.407Z,75
2018-05-11T11:42:20.969Z,75
2018-05-11T11:43:01.542Z,75
2018-05-11T11:43:42.108Z,70
2018-05-11T11:44:22.745Z,70
2018-05-11T11:45:03.327Z,70
2018-05-11T11:45:43.885Z,70
2018-05-11T11:46:24.430Z,65
2018-05-11T11:47:04.992Z,65
2018-05-11T11:47:45.562Z,65
2018-05-11T11:48:26.091Z,65
2018-05-11T11:49:06.664Z,65
2018-05-11T11:49:47.245Z,65
2018-05-11T11:50:27.846Z,65
2018-05-11T11:51:08.404Z,65
2018-05-11T11:51:48.972Z,65
2018-05-11T11:52:29.546Z,65
2018-05-11T11:53:10.106Z,65
2018-05-11T11:53:50.702Z,60
2018-05-11T11:54:31.245Z,60
2018-05-11T11:55:11.821Z,60
2018-05-11T11:55:52.378Z,60
2018-05-11T11:56:32.971Z,60
2018-05-11T11:57:13.558Z,55
2018-05-11T11:57:54.114Z,55
2018-05-11T11:58:34.688Z,60
2018-05-11T11:59:15.247Z,60
2018-05-11T11:59:55.837Z,55
2018-05-11T12:00:36.409Z,55
2018-05-11T12:01:17.010Z,55
2018-05-11T12:01:57.660Z,55
2018-05-11T12:02:38.099Z,60
2018-05-11T12:03:18.660Z,60
2018-05-11T12:03:59.271Z,60
2018-05-11T12:04:39.930Z,65
2018-05-11T12:05:20.846Z,65
2018-05-11T12:06:01.418Z,70
2018-05-11T12:06:42.019Z,70
2018-05-11T12:07:22.754Z,70
2018-05-11T12:08:03.330Z,70
2018-05-11T12:08:43.941Z,70
2018-05-11T12:09:24.524Z,70
2018-05-11T12:10:05.118Z,70
2018-05-11T12:10:45.811Z,70
2018-05-11T12:11:26.379Z,70
2018-05-11T12:12:06.987Z,70
2018-05-11T12:12:47.587Z,70
2018-05-11T12:13:28.175Z,65
2018-05-11T12:14:08.797Z,65
2018-05-11T12:14:49.412Z,65
2018-05-11T12:15:29.970Z,60
2018-05-11T12:16:10.583Z,60
2018-05-11T12:16:51.227Z,60
2018-05-11T12:17:31.790Z,60
2018-05-11T12:18:12.441Z,60
2018-05-11T12:18:53.006Z,60
2018-05-11T12:19:33.598Z,55
2018-05-11T12:20:14.138Z,55
2018-05-11T12:20:54.745Z,55
2018-05-11T12:21:35.323Z,60
2018-05-11T12:22:15.943Z,60
2018-05-11T12:22:56.504Z,60
2018-05-11T12:23:37.106Z,60
2018-05-11T12:24:17.677Z,60
2018-05-11T12:24:58.259Z,60
2018-05-11T12:25:38.785Z,60
2018-05-11T12:26:19.433Z,60
2018-05-11T12:26:59.939Z,60
2018-05-11T12:27:40.509Z,60
2018-05-11T12:28:21.081Z,60
2018-05-11T12:29:01.667Z,60
2018-05-11T12:29:42.200Z,60
2018-05-11T12:30:22.795Z,60
2018-05-11T12:31:03.416Z,60
2018-05-11T12:31:43.942Z,60
2018-05-11T12:32:24.513Z,55
2018-05-11T12:33:05.071Z,55
2018-05-11T12:33:45.626Z,55
2018-05-11T12:34:26.482Z,55
2018-05-11T12:35:07.478Z,55
2018-05-11T12:35:48.491Z,55
2018-05-11T12:36:29.473Z,60
2018-05-11T12:37:10.029Z,60
2018-05-11T12:37:50.693Z,60
2018-05-11T12:38:31.412Z,60
2018-05-11T12:39:11.993Z,60
2018-05-11T12:39:52.851Z,55
2018-05-11T12:40:33.530Z,55
2018-05-11T12:41:14.212Z,55
2018-05-11T12:41:54.980Z,55
2018-05-11T12:42:35.749Z,55
2018-05-11T12:43:16.609Z,55
2018-05-11T12:43:57.203Z,55
2018-05-11T12:44:37.759Z,50
2018-05-11T12:45:18.344Z,50
2018-05-11T12:45:58.967Z,50
2018-05-11T12:46:39.563Z,50
2018-05-11T12:47:20.077Z,50
2018-05-11T12:48:00.747Z,50
2018-05-11T12:48:41.313Z,45
2018-05-11T12:49:21.969Z,45
2018-05-11T12:50:02.678Z,45
2018-05-11T12:50:43.224Z,45
2018-05-11T12:51:23.783Z,45
2018-05-11T12:52:04.441Z,45
2018-05-11T12:52:45.613Z,45
2018-05-11T12:53:26.410Z,45
2018-05-11T12:54:07.385Z,45
2018-05-11T12:54:48.032Z,45
2018-05-11T12:55:28.708Z,45
2018-05-11T12:56:09.283Z,45
2018-05-11T12:56:50.041Z,50
2018-05-11T12:57:30.762Z,50
2018-05-11T12:58:11.345Z,50
2018-05-11T12:58:51.881Z,50
2018-05-11T12:59:32.450Z,50
2018-05-11T13:00:12.973Z,45
2018-05-11T13:00:53.550Z,45
2018-05-11T13:01:34.124Z,50
2018-05-11T13:02:14.692Z,50
2018-05-11T13:02:55.255Z,50
2018-05-11T13:03:35.858Z,50
2018-05-11T13:04:16.477Z,50
2018-05-11T13:04:57.084Z,50
2018-05-11T13:05:37.649Z,50
2018-05-11T13:06:18.195Z,50
2018-05-11T13:06:58.763Z,50
2018-05-11T13:07:39.326Z,50
2018-05-11T13:08:19.861Z,50
2018-05-11T13:09:00.430Z,50
2018-05-11T13:09:40.978Z,50
2018-05-11T13:10:21.589Z,50
2018-05-11T13:11:02.147Z,50
2018-05-11T13:11:42.690Z,50
2018-05-11T13:12:23.264Z,50
2018-05-11T13:13:03.848Z,50
2018-05-11T13:13:44.373Z,50
2018-05-11T13:14:24.943Z,50
2018-05-11T13:15:05.490Z,50
2018-05-11T13:15:46.057Z,50
2018-05-11T13:16:26.697Z,50
2018-05-11T13:17:07.257Z,50
2018-05-11T13:17:47.823Z,50
2018-05-11T13:18:28.669Z,50
2018-05-11T13:19:09.290Z,50
2018-05-11T13:19:49.871Z,50
2018-05-11T13:20:30.432Z,50
2018-05-11T13:21:10.986Z,50
2018-05-11T13:21:51.561Z,50
2018-05-11T13:22:32.121Z,50
2018-05-11T13:23:12.700Z,50
2018-05-11T13:23:53.246Z,50
2018-05-11T13:24:34.078Z,50
2018-05-11T13:25:15.772Z,50
2018-05-11T13:25:56.331Z,50
2018-05-11T13:26:36.882Z,50
2018-05-11T13:27:17.454Z,50
2018-05-11T13:27:58.142Z,50
2018-05-11T13:28:38.715Z,50
2018-05-11T13:29:19.340Z,50
2018-05-11T13:29:59.896Z,50
2018-05-11T13:30:40.476Z,45
2018-05-11T13:31:21.039Z,45
2018-05-11T13:32:01.619Z,45
2018-05-11T13:32:42.201Z,45
2018-05-11T13:33:22.760Z,45
2018-05-11T13:34:03.305Z,45
2018-05-11T13:34:43.878Z,45
2018-05-11T13:35:24.451Z,40
2018-05-11T13:36:05.065Z,40
2018-05-11T13:36:45.905Z,40
2018-05-11T13:37:26.483Z,40
2018-05-11T13:38:07.035Z,40
2018-05-11T13:38:47.598Z,40
2018-05-11T13:39:28.184Z,40
2018-05-11T13:40:08.749Z,40
2018-05-11T13:40:49.312Z,40
2018-05-11T13:41:29.873Z,40
2018-05-11T13:42:10.476Z,40
2018-05-11T13:42:51.014Z,40
2018-05-11T13:43:31.591Z,40
2018-05-11T13:44:12.139Z,40
2018-05-11T13:44:52.704Z,40
2018-05-11T13:45:33.285Z,40
2018-05-11T13:46:13.848Z,40
2018-05-11T13:46:54.441Z,40
2018-05-11T13:47:35.006Z,40
2018-05-11T13:48:15.690Z,40
2018-05-11T13:48:56.174Z,40
2018-05-11T13:49:36.777Z,35
2018-05-11T13:50:17.300Z,35
2018-05-11T13:50:57.868Z,35
2018-05-11T13:51:38.431Z,35
2018-05-11T13:52:18.999Z,35
2018-05-11T13:52:59.572Z,35
2018-05-11T13:53:40.155Z,35
2018-05-11T13:54:20.726Z,40
2018-05-11T13:55:01.270Z,40
2018-05-11T13:55:41.833Z,40
2018-05-11T13:56:22.428Z,40
2018-05-11T13:57:02.954Z,40
2018-05-11T13:57:43.502Z,40
2018-05-11T13:58:24.067Z,40
2018-05-11T13:59:04.626Z,40
2018-05-11T13:59:45.212Z,40
2018-05-11T14:00:25.772Z,40
2018-05-11T14:01:06.337Z,40
2018-05-11T14:01:46.892Z,40
2018-05-11T14:02:27.475Z,40
2018-05-11T14:03:08.015Z,40
2018-05-11T14:03:48.591Z,40
2018-05-11T14:04:29.164Z,40
2018-05-11T14:05:09.749Z,40
2018-05-11T14:05:50.306Z,40
2018-05-11T14:06:30.893Z,40
2018-05-11T14:07:11.463Z,40
2018-05-11T14:07:52.050Z,40
2018-05-11T14:08:32.617Z,40
2018-05-11T14:09:13.177Z,40
2018-05-11T14:09:53.732Z,40
2018-05-11T14:10:34.335Z,40
2018-05-11T14:11:14.920Z,40
2018-05-11T14:11:55.723Z,40
2018-05-11T14:12:36.232Z,40
2018-05-11T14:13:16.778Z,40
2018-05-11T14:13:57.334Z,45
2018-05-11T14:14:37.887Z,45
2018-05-11T14:15:18.445Z,45
2018-05-11T14:15:59.001Z,45
2018-05-11T14:16:39.582Z,45
2018-05-11T14:17:20.161Z,45
2018-05-11T14:18:00.736Z,45
2018-05-11T14:18:41.274Z,45
2018-05-11T14:19:21.837Z,45
2018-05-11T14:20:02.398Z,45
2018-05-11T14:20:42.951Z,45
2018-05-11T14:21:23.500Z,45
2018-05-11T14:22:04.064Z,45
2018-05-11T14:22:44.625Z,45
2018-05-11T14:23:25.178Z,45
2018-05-11T14:24:05.752Z,45
2018-05-11T14:24:46.316Z,45
2018-05-11T14:25:26.895Z,45
2018-05-11T14:26:07.467Z,45
2018-05-11T14:26:48.063Z,45
2018-05-11T14:27:28.669Z,45
2018-05-11T14:28:09.230Z,45
2018-05-11T14:28:49.825Z,45
2018-05-11T14:29:30.402Z,45
2018-05-11T14:30:10.956Z,45
2018-05-11T14:30:51.519Z,45
2018-05-11T14:31:32.088Z,45
2018-05-11T14:32:12.645Z,45
2018-05-11T14:32:53.206Z,45
2018-05-11T14:33:33.762Z,45
2018-05-11T14:34:14.321Z,45
2018-05-11T14:34:54.876Z,45
2018-05-11T14:35:35.446Z,45
2018-05-11T14:36:16.054Z,45
2018-05-11T14:36:56.607Z,45
2018-05-11T14:37:37.160Z,45
2018-05-11T14:38:17.765Z,45
2018-05-11T14:38:58.317Z,45
2018-05-11T14:39:38.872Z,45
2018-05-11T14:40:19.421Z,45
2018-05-11T14:40:59.971Z,45
2018-05-11T14:41:40.525Z,45
2018-05-11T14:42:21.106Z,45
2018-05-11T14:43:01.649Z,45
2018-05-11T14:43:42.209Z,45
2018-05-11T14:44:22.775Z,45
2018-05-11T14:45:03.352Z,45
2018-05-11T14:45:43.897Z,45
2018-05-11T14:46:24.463Z,45
2018-05-11T14:47:05.036Z,45
2018-05-11T14:47:45.586Z,45
2018-05-11T14:48:26.172Z,45
2018-05-11T14:49:06.733Z,45
2018-05-11T14:49:47.399Z,45
2018-05-11T14:50:27.858Z,45
2018-05-11T14:51:08.445Z,45
2018-05-11T14:51:49.003Z,45
2018-05-11T14:52:29.599Z,45
2018-05-11T14:53:10.198Z,45
2018-05-11T14:53:50.777Z,45
2018-05-11T14:54:31.349Z,45
2018-05-11T14:55:11.935Z,45
2018-05-11T14:55:52.486Z,45
2018-05-11T14:56:33.072Z,45
2018-05-11T14:57:13.602Z,45
2018-05-11T14:57:54.174Z,45
2018-05-11T14:58:34.751Z,45
2018-05-11T14:59:15.292Z,45
2018-05-11T14:59:55.869Z,45
2018-05-11T15:00:36.436Z,45
2018-05-11T15:01:16.979Z,45
2018-05-11T15:01:57.546Z,45
2018-05-11T15:02:38.106Z,45
2018-05-11T15:03:18.658Z,45
2018-05-11T15:03:59.224Z,45
2018-05-11T15:04:39.831Z,40
2018-05-11T15:05:20.404Z,40
2018-05-11T15:06:01.011Z,40
2018-05-11T15:06:41.596Z,40
2018-05-11T15:07:22.149Z,40
2018-05-11T15:08:02.716Z,40
2018-05-11T15:08:43.285Z,40
2018-05-11T15:09:23.836Z,40
2018-05-11T15:10:04.497Z,40
2018-05-11T15:10:44.932Z,40
2018-05-11T15:11:25.515Z,40
2018-05-11T15:12:06.079Z,40
2018-05-11T15:12:46.664Z,40
2018-05-11T15:13:27.244Z,40
2018-05-11T15:14:07.810Z,40
2018-05-11T15:14:48.370Z,40
2018-05-11T15:15:28.979Z,40
2018-05-11T15:16:09.525Z,40
2018-05-11T15:16:50.097Z,40
2018-05-11T15:17:30.691Z,40
2018-05-11T15:18:11.256Z,40
2018-05-11T15:18:51.825Z,40
2018-05-11T15:19:32.392Z,40
2018-05-11T15:20:12.970Z,40
2018-05-11T15:20:53.512Z,40
2018-05-11T15:21:34.117Z,45
2018-05-11T15:22:14.669Z,45
2018-05-11T15:22:55.238Z,45
2018-05-11T15:23:35.793Z,45
2018-05-11T15:24:16.374Z,45
2018-05-11T15:24:56.941Z,50
2018-05-11T15:25:37.490Z,50
2018-05-11T15:26:18.053Z,50
2018-05-11T15:26:58.622Z,50
2018-05-11T15:27:39.176Z,50
2018-05-11T15:28:19.729Z,50
2018-05-11T15:29:00.281Z,50
2018-05-11T15:29:40.909Z,50
2018-05-11T15:30:21.496Z,50
2018-05-11T15:31:02.059Z,50
2018-05-11T15:31:42.630Z,50
2018-05-11T15:32:23.170Z,50
2018-05-11T15:33:03.767Z,50
2018-05-11T15:33:44.340Z,50
2018-05-11T15:34:24.904Z,50
2018-05-11T15:35:05.451Z,45
2018-05-11T15:35:46.012Z,45
2018-05-11T15:36:26.569Z,45
2018-05-11T15:37:07.145Z,45
2018-05-11T15:37:47.708Z,45
2018-05-11T15:38:28.278Z,45
2018-05-11T15:39:08.856Z,45
2018-05-11T15:39:49.408Z,45
2018-05-11T15:40:30.168Z,40
2018-05-11T15:41:10.581Z,40
2018-05-11T15:41:51.161Z,40
2018-05-11T15:42:31.719Z,40
2018-05-11T15:43:12.264Z,40
2018-05-11T15:43:52.819Z,40
2018-05-11T15:44:33.396Z,40
2018-05-11T15:45:14.033Z,40
2018-05-11T15:45:54.578Z,40
2018-05-11T15:46:35.145Z,35
2018-05-11T15:47:15.712Z,35
2018-05-11T15:47:56.292Z,35
2018-05-11T15:48:36.860Z,30
2018-05-11T15:49:17.419Z,30
2018-05-11T15:49:57.987Z,30
2018-05-11T15:50:38.567Z,30
2018-05-11T15:51:19.129Z,30
2018-05-11T15:51:59.693Z,25
2018-05-11T15:52:40.263Z,25
2018-05-11T15:53:20.831Z,25
2018-05-11T15:54:01.413Z,25
2018-05-11T15:54:41.983Z,25
2018-05-11T15:55:22.592Z,25
2018-05-11T15:56:03.179Z,25
2018-05-11T15:56:43.736Z,25
2018-05-11T15:57:24.301Z,25
2018-05-11T15:58:04.871Z,25
2018-05-11T15:58:45.458Z,25
2018-05-11T15:59:26.041Z,25
2018-05-11T16:00:06.621Z,25
2018-05-11T16:00:47.173Z,25
2018-05-11T16:01:27.757Z,20
2018-05-11T16:02:08.297Z,20
2018-05-11T16:02:48.852Z,20
2018-05-11T16:03:29.419Z,20
2018-05-11T16:04:09.988Z,20
2018-05-11T16:04:50.565Z,20
2018-05-11T16:05:31.116Z,15
2018-05-11T16:06:11.681Z,15
2018-05-11T16:06:52.258Z,15
2018-05-11T16:07:32.812Z,15
2018-05-11T16:08:13.367Z,15
2018-05-11T16:08:53.944Z,15
2018-05-11T16:09:34.501Z,15
2018-05-11T16:10:15.073Z,15
2018-05-11T16:10:55.652Z,15
2018-05-11T16:11:36.264Z,15
2018-05-11T16:12:16.832Z,15
2018-05-11T16:12:57.501Z,15
2018-05-11T16:13:37.972Z,15
2018-05-11T16:14:18.558Z,15
2018-05-11T16:14:59.148Z,15
2018-05-11T16:15:39.694Z,15
2018-05-11T16:16:20.262Z,15
2018-05-11T16:17:00.819Z,15
2018-05-11T16:17:41.391Z,10
2018-05-11T16:18:21.965Z,10
2018-05-11T16:19:02.545Z,10
2018-05-11T16:19:43.092Z,10
2018-05-11T16:20:23.666Z,10
2018-05-11T16:21:04.229Z,10
2018-05-11T16:21:44.857Z,10
2018-05-11T16:22:25.425Z,10
2018-05-11T16:23:05.994Z,10
2018-05-11T16:23:46.564Z,10
2018-05-11T16:24:27.125Z,10
2018-05-11T16:25:07.689Z,10
2018-05-11T16:25:48.249Z,10
2018-05-11T16:26:28.828Z,10
2018-05-11T16:27:09.375Z,10
2018-05-11T16:27:49.948Z,10
2018-05-11T16:28:30.507Z,10
2018-05-11T16:29:11.074Z,10
2018-05-11T16:29:51.638Z,10
2018-05-11T16:30:32.193Z,10
2018-05-11T16:31:12.748Z,10
2018-05-11T16:31:53.315Z,10
2018-05-11T16:32:33.867Z,10
2018-05-11T16:33:14.429Z,10
2018-05-11T16:33:54.990Z,10
2018-05-11T16:34:35.543Z,10
2018-05-11T16:35:16.105Z,10
2018-05-11T16:35:56.689Z,10
2018-05-11T16:36:37.274Z,10
2018-05-11T16:37:17.821Z,10
2018-05-11T16:37:58.389Z,10
2018-05-11T16:38:38.949Z,10
2018-05-11T16:39:19.505Z,10
2018-05-11T16:40:00.072Z,10
2018-05-11T16:40:40.632Z,10
2018-05-11T16:41:21.231Z,10
2018-05-11T16:42:01.807Z,10
2018-05-11T16:42:42.340Z,10
2018-05-11T16:43:22.882Z,10
2018-05-11T16:44:03.433Z,10
2018-05-11T16:44:43.977Z,10
2018-05-11T16:45:24.530Z,10
2018-05-11T16:46:05.112Z,10
2018-05-11T16:46:45.691Z,10
2018-05-11T16:47:26.305Z,10
2018-05-11T16:48:06.867Z,10
2018-05-11T16:48:47.434Z,10
2018-05-11T16:49:28.049Z,10
2018-05-11T16:50:08.703Z,10
2018-05-11T16:50:49.186Z,10
2018-05-11T16:51:29.788Z,10
2018-05-11T16:52:10.362Z,10
2018-05-11T16:52:50.906Z,10
2018-05-11T16:53:31.468Z,10
2018-05-11T16:54:12.038Z,10
2018-05-11T16:54:52.596Z,10
2018-05-11T16:55:33.172Z,10
2018-05-11T16:56:13.737Z,10
2018-05-11T16:56:54.302Z,10
2018-05-11T16:57:34.850Z,10
2018-05-11T16:58:15.412Z,10
2018-05-11T16:58:55.957Z,10
2018-05-11T16:59:36.522Z,10
2018-05-11T17:00:17.101Z,10
2018-05-11T17:00:57.745Z,10
2018-05-11T17:01:38.249Z,10
2018-05-11T17:02:18.800Z,5
2018-05-11T17:02:59.358Z,5
2018-05-11T17:03:39.925Z,5
2018-05-11T17:04:20.515Z,5
2018-05-11T17:05:01.095Z,5
2018-05-11T17:05:41.626Z,5
2018-05-11T17:06:22.232Z,5
2018-05-11T17:07:02.843Z,5
2018-05-11T17:07:43.391Z,5
2018-05-11T17:08:23.944Z,5
2018-05-11T17:09:04.522Z,5
2018-05-11T17:09:45.107Z,5
2018-05-11T17:10:25.662Z,5
2018-05-11T17:11:06.206Z,5
2018-05-11T17:11:46.775Z,5
2018-05-11T17:12:27.338Z,5
2018-05-11T17:13:07.906Z,5
2018-05-11T17:13:48.468Z,5
2018-05-11T17:14:29.029Z,5
2018-05-11T17:15:09.607Z,5
2018-05-11T17:15:50.174Z,5
2018-05-11T17:16:30.860Z,5
2018-05-11T17:17:11.330Z,5
2018-05-11T17:17:51.884Z,5
2018-05-11T17:18:32.444Z,5
2018-05-11T17:19:13.012Z,5
2018-05-11T17:19:53.580Z,5
2018-05-11T17:20:34.138Z,5
2018-05-11T17:21:14.706Z,5
2018-05-11T17:21:55.283Z,5
2018-05-11T17:22:35.937Z,5
2018-05-11T17:23:16.437Z,5
2018-05-11T17:23:57.001Z,5
2018-05-11T17:24:37.550Z,5
2018-05-11T17:25:18.112Z,5
2018-05-11T17:25:58.690Z,5
2018-05-11T17:26:39.266Z,5
2018-05-11T17:27:19.822Z,5
2018-05-11T17:28:00.374Z,5
2018-05-11T17:28:40.932Z,5
2018-05-11T17:29:21.504Z,5
2018-05-11T17:30:02.111Z,5
2018-05-11T17:30:42.625Z,5
2018-05-11T17:31:23.200Z,5
2018-05-11T17:32:03.782Z,5
2018-05-11T17:32:44.371Z,5
2018-05-11T17:33:24.944Z,5
2018-05-11T17:34:05.526Z,5
2018-05-11T17:34:46.081Z,5
2018-05-11T17:35:26.676Z,5
2018-05-11T17:36:07.233Z,5
2018-05-11T17:36:47.816Z,5
2018-05-11T17:37:28.369Z,5
2018-05-11T17:38:08.929Z,5
2018-05-11T17:38:49.493Z,5
2018-05-11T17:39:30.047Z,5
2018-05-11T17:40:10.714Z,5
2018-05-11T17:40:51.195Z,5
2018-05-11T17:41:31.760Z,5
2018-05-11T17:42:12.272Z,5
2018-05-11T17:42:52.879Z,5
2018-05-11T17:43:33.412Z,5
2018-05-11T17:44:14.031Z,5
2018-05-11T17:44:54.611Z,5
2018-05-11T17:45:35.296Z,5
2018-05-11T17:46:15.889Z,5
2018-05-11T17:46:56.454Z,5
2018-05-11T17:47:37.052Z,5
2018-05-11T17:48:17.639Z,5
2018-05-11T17:48:58.205Z,5
2018-05-11T17:49:38.758Z,5
2018-05-11T17:50:19.325Z,5
2018-05-11T17:50:59.913Z,5
2018-05-11T17:51:40.490Z,5
2018-05-11T17:52:21.058Z,5
2018-05-11T17:53:01.619Z,5
2018-05-11T17:53:42.177Z,5
2018-05-11T17:54:22.739Z,0
2018-05-11T17:55:03.308Z,0
2018-05-11T17:55:43.868Z,0
2018-05-11T17:56:24.432Z,0
2018-05-11T17:57:05.077Z,0
2018-05-11T17:57:45.537Z,0
2018-05-11T17:58:26.107Z,0
2018-05-11T17:59:06.655Z,0
2018-05-11T17:59:47.224Z,0
2018-05-11T18:00:27.791Z,0
2018-05-11T18:01:08.381Z,0
2018-05-11T18:01:48.940Z,0
2018-05-11T18:02:29.505Z,0
2018-05-11T18:03:10.151Z,0
2018-05-11T18:03:50.638Z,0
2018-05-11T18:04:31.199Z,0
2018-05-11T18:05:11.740Z,0
2018-05-11T18:05:52.308Z,0
2018-05-11T18:06:32.904Z,0
2018-05-11T18:07:13.455Z,0
2018-05-11T18:07:54.019Z,0
2018-05-11T18:08:34.592Z,0
2018-05-11T18:09:15.141Z,0
2018-05-11T18:09:55.714Z,0
2018-05-11T18:10:36.274Z,0
2018-05-11T18:11:16.828Z,0
2018-05-11T18:11:57.404Z,0
2018-05-11T18:12:37.962Z,0
2018-05-11T18:13:18.529Z,0
2018-05-11T18:13:59.091Z,0
2018-05-11T18:14:39.649Z,0